Time;durP1;ratioP1;P1;durP2;ratioP2;P2;SDS_P1;SDS_P2;PMS_P1;PMS_P2;Temp;Humidity;BMP_temperature;BMP_pressure;BME280_temperature;BME280_humidity;BME280_pressure;Samples;Min_cycle;Max_cycle;Signal;HPM_P1;HPM_P2
2023/01/25 00:02:33;;;;;;;26.63;17.17;;;;;;;7.93;58.76;100403.47;7031583;28;20282;-81
2023/01/25 00:06:00;;;;;;;23.47;16.40;;;;;;;8.08;59.53;100399.25;7031049;28;20301;-80
2023/01/25 00:09:22;;;;;;;25.43;17.10;;;;;;;7.72;59.85;100375.19;7031560;28;20587;-81
2023/01/25 00:12:44;;;;;;;24.53;16.83;;;;;;;7.77;60.08;100397.88;7029813;28;20232;-81
2023/01/25 00:16:06;;;;;;;25.83;17.50;;;;;;;8.19;58.69;100396.38;7030003;28;20193;-80
2023/01/25 00:19:27;;;;;;;29.77;18.00;;;;;;;8.36;58.58;100376.78;7030749;28;20340;-80
2023/01/25 00:22:50;;;;;;;25.80;17.20;;;;;;;8.36;58.54;100378.63;7031275;28;20736;-80
2023/01/25 00:26:12;;;;;;;23.57;16.17;;;;;;;8.37;58.18;100378.44;7029264;28;20252;-79
2023/01/25 00:29:33;;;;;;;25.90;16.57;;;;;;;8.45;57.61;100393.81;7028880;28;20211;-80
2023/01/25 00:33:02;;;;;;;24.77;16.80;;;;;;;8.43;57.44;100399.34;7028722;28;20348;-79
2023/01/25 00:36:32;;;;;;;26.63;18.20;;;;;;;8.37;57.28;100370.38;7028847;28;20278;-80
2023/01/25 00:39:55;;;;;;;23.10;16.83;;;;;;;8.09;58.19;100390.25;7029249;28;20185;-80
2023/01/25 00:43:17;;;;;;;26.63;18.17;;;;;;;8.31;58.38;100375.56;7028846;28;20282;-79
2023/01/25 00:46:38;;;;;;;29.50;18.83;;;;;;;8.18;58.46;100373.19;7028113;28;20243;-80
2023/01/25 00:50:00;;;;;;;26.37;17.23;;;;;;;8.22;58.48;100371.94;7028790;28;20345;-80
2023/01/25 00:53:21;;;;;;;25.50;17.00;;;;;;;8.26;58.10;100372.47;7028943;28;20313;-79
2023/01/25 00:56:44;;;;;;;23.60;16.93;;;;;;;8.33;58.03;100370.84;7028734;28;20229;-79
2023/01/25 01:00:07;;;;;;;24.23;16.00;;;;;;;8.40;57.66;100370.09;7028305;28;20213;-80
2023/01/25 01:03:29;;;;;;;24.67;16.73;;;;;;;8.54;57.59;100372.25;7031561;28;20610;-80
2023/01/25 01:06:52;;;;;;;23.23;16.57;;;;;;;8.68;56.82;100357.41;7033813;28;20309;-80
2023/01/25 01:10:13;;;;;;;25.53;16.57;;;;;;;8.72;56.58;100374.94;7034210;28;20228;-79
2023/01/25 01:13:38;;;;;;;24.17;16.07;;;;;;;8.72;56.74;100358.78;7032545;28;20230;-79
2023/01/25 01:16:59;;;;;;;21.30;15.43;;;;;;;9.02;56.03;100359.19;7033190;28;20638;-79
2023/01/25 01:20:21;;;;;;;21.60;14.73;;;;;;;9.02;55.87;100345.72;7033640;28;20209;-80
2023/01/25 01:23:42;;;;;;;21.83;15.50;;;;;;;9.22;56.11;100363.38;7033438;28;20292;-79
2023/01/25 01:27:04;;;;;;;22.03;14.67;;;;;;;9.21;55.42;100364.38;7028360;28;20306;-79
2023/01/25 01:30:27;;;;;;;21.33;15.77;;;;;;;9.28;55.06;100358.19;7031382;28;20262;-79
2023/01/25 01:33:49;;;;;;;22.90;14.63;;;;;;;9.11;55.17;100359.06;7032754;28;20344;-80
2023/01/25 01:37:10;;;;;;;22.60;14.40;;;;;;;8.97;55.55;100356.16;7032100;28;20695;-79
2023/01/25 01:40:32;;;;;;;22.03;15.60;;;;;;;8.74;56.78;100351.41;7033173;28;20276;-80
2023/01/25 01:43:54;;;;;;;22.37;15.27;;;;;;;8.72;56.68;100358.78;7033099;28;20315;-81
2023/01/25 01:47:19;;;;;;;24.70;15.70;;;;;;;8.82;56.93;100355.00;7032212;28;20376;-80
2023/01/25 01:50:41;;;;;;;22.77;15.43;;;;;;;8.78;56.74;100367.06;7005503;28;20210;-79
2023/01/25 01:54:05;;;;;;;22.03;15.07;;;;;;;8.66;57.32;100343.28;7003933;28;20221;-81
2023/01/25 01:57:31;;;;;;;21.77;14.77;;;;;;;8.81;56.92;100352.47;7005466;28;20362;-80
2023/01/25 02:00:53;;;;;;;19.73;14.43;;;;;;;8.91;56.60;100370.19;7004036;28;20331;-80
2023/01/25 02:04:18;;;;;;;21.37;15.40;;;;;;;8.82;55.84;100325.44;7004188;28;20252;-80
2023/01/25 02:07:40;;;;;;;19.20;14.00;;;;;;;8.90;56.22;100357.75;7004742;28;20303;-80
2023/01/25 02:11:01;;;;;;;18.50;14.07;;;;;;;8.53;56.88;100367.88;7004539;28;20211;-80
2023/01/25 02:14:23;;;;;;;19.20;13.87;;;;;;;8.54;56.89;100356.09;7003485;28;20558;-80
2023/01/25 02:17:45;;;;;;;18.80;13.17;;;;;;;8.56;56.57;100346.06;7004574;28;20374;-80
2023/01/25 02:21:07;;;;;;;16.87;13.77;;;;;;;8.69;56.92;100342.97;7004654;28;20271;-79
2023/01/25 02:24:31;;;;;;;19.83;13.57;;;;;;;9.02;55.69;100350.28;7025437;28;20209;-81
2023/01/25 02:27:55;;;;;;;19.93;13.53;;;;;;;8.77;55.93;100349.25;7032048;28;20229;-80
2023/01/25 02:31:17;;;;;;;18.53;12.93;;;;;;;9.05;55.25;100345.44;7034948;28;20206;-80
2023/01/25 02:34:38;;;;;;;19.03;13.53;;;;;;;9.11;54.77;100344.78;7032260;28;20251;-80
2023/01/25 02:38:00;;;;;;;17.53;12.33;;;;;;;9.05;55.17;100340.03;7031851;28;20311;-80
2023/01/25 02:41:25;;;;;;;19.80;13.20;;;;;;;8.70;55.27;100353.56;7031756;28;20208;-80
2023/01/25 02:44:48;;;;;;;18.23;12.07;;;;;;;8.82;55.20;100349.63;7031488;28;20641;-79
2023/01/25 02:48:10;;;;;;;18.80;11.70;;;;;;;7.95;57.65;100345.06;7031220;28;20235;-80
2023/01/25 02:51:34;;;;;;;16.47;12.23;;;;;;;8.60;56.42;100336.66;7031689;28;20207;-79
2023/01/25 02:54:56;;;;;;;15.90;11.83;;;;;;;8.98;55.53;100333.63;7034180;28;20250;-80
2023/01/25 02:58:17;;;;;;;15.57;11.20;;;;;;;8.94;55.52;100334.91;7031211;28;20228;-79
2023/01/25 03:01:41;;;;;;;15.27;11.00;;;;;;;9.30;53.28;100334.66;7031185;28;20293;-80
2023/01/25 03:05:03;;;;;;;13.70;9.67;;;;;;;8.90;53.82;100330.03;7030606;28;20368;-80
2023/01/25 03:08:24;;;;;;;15.00;9.63;;;;;;;8.29;56.02;100335.38;7030833;28;20232;-80
2023/01/25 03:11:46;;;;;;;16.90;10.90;;;;;;;8.41;54.62;100277.72;7031208;28;20216;-79
2023/01/25 03:15:09;;;;;;;18.83;10.47;;;;;;;8.47;54.56;100311.19;7030141;28;20231;-80
2023/01/25 03:18:31;;;;;;;15.13;10.77;;;;;;;8.17;55.05;100314.22;7030208;28;20231;-79
2023/01/25 03:21:53;;;;;;;16.17;11.23;;;;;;;7.84;56.05;100296.94;7030710;28;20340;-80
2023/01/25 03:25:14;;;;;;;13.37;9.80;;;;;;;7.99;57.19;100311.56;7029178;28;20204;-79
2023/01/25 03:28:38;;;;;;;15.13;10.50;;;;;;;8.22;56.51;100296.69;7030539;28;20696;-80
2023/01/25 03:31:59;;;;;;;14.83;10.87;;;;;;;8.54;55.46;100304.22;7030910;28;20230;-80
2023/01/25 03:35:22;;;;;;;13.70;9.90;;;;;;;8.08;55.75;100302.56;7029537;28;20226;-80
2023/01/25 03:38:44;;;;;;;15.23;10.27;;;;;;;8.20;55.49;100271.81;7030065;28;20264;-80
2023/01/25 03:42:05;;;;;;;16.97;10.87;;;;;;;8.21;55.52;100305.78;7030541;28;20325;-80
2023/01/25 03:45:27;;;;;;;14.77;10.57;;;;;;;7.71;57.03;100309.06;7029423;28;20696;-81
2023/01/25 03:48:49;;;;;;;14.73;11.10;;;;;;;8.11;56.72;100304.09;7029429;28;20231;-80
2023/01/25 03:52:12;;;;;;;14.83;10.63;;;;;;;8.46;55.64;100288.84;7029745;28;20211;-81
2023/01/25 03:55:33;;;;;;;14.97;10.30;;;;;;;8.05;55.72;100293.97;7028904;28;20318;-81
2023/01/25 03:58:55;;;;;;;15.73;11.43;;;;;;;8.03;56.61;100294.16;7028716;28;20236;-81
2023/01/25 04:02:16;;;;;;;14.30;10.43;;;;;;;7.59;57.47;100291.44;7029884;28;20313;-80
2023/01/25 04:05:38;;;;;;;14.73;10.30;;;;;;;7.96;56.16;100284.97;7029350;28;20201;-81
2023/01/25 04:09:01;;;;;;;15.53;10.80;;;;;;;8.00;55.96;100297.13;7029929;28;20248;-80
2023/01/25 04:12:22;;;;;;;14.30;10.40;;;;;;;8.25;55.97;100292.88;7029445;28;20214;-81
2023/01/25 04:15:44;;;;;;;15.90;11.17;;;;;;;7.48;57.55;100291.69;7028963;28;20292;-81
2023/01/25 04:19:06;;;;;;;15.73;10.83;;;;;;;8.26;56.04;100295.38;7029118;28;20322;-80
2023/01/25 04:22:27;;;;;;;18.40;11.33;;;;;;;8.25;56.02;100292.88;7029126;28;20735;-81
2023/01/25 04:25:54;;;;;;;16.77;10.70;;;;;;;8.14;56.28;100253.59;7028922;28;20293;-79
2023/01/25 04:29:15;;;;;;;17.03;11.17;;;;;;;8.59;55.40;100280.34;7028919;28;20371;-80
2023/01/25 04:32:37;;;;;;;12.60;9.63;;;;;;;8.79;54.64;100269.25;7029396;28;20355;-80
2023/01/25 04:35:59;;;;;;;14.73;10.67;;;;;;;8.66;54.65;100279.59;7029053;28;20807;-79
2023/01/25 04:39:20;;;;;;;16.33;10.53;;;;;;;8.33;55.22;100282.19;7035043;28;20370;-80
2023/01/25 04:42:43;;;;;;;15.13;11.00;;;;;;;8.37;55.77;100273.66;7034947;28;20295;-81
2023/01/25 04:46:05;;;;;;;13.00;9.57;;;;;;;8.28;54.88;100271.03;7034423;28;20633;-80
2023/01/25 04:49:26;;;;;;;12.83;9.40;;;;;;;8.44;54.93;100260.44;7034863;28;20301;-81
2023/01/25 04:52:48;;;;;;;14.80;10.63;;;;;;;8.77;54.18;100271.25;7034139;28;20210;-82
2023/01/25 04:56:10;;;;;;;13.97;10.17;;;;;;;7.75;55.60;100271.03;7033851;28;20759;-80
2023/01/25 04:59:33;;;;;;;14.47;10.30;;;;;;;7.25;57.38;100266.25;7033270;28;20201;-80
2023/01/25 05:02:54;;;;;;;15.67;10.17;;;;;;;8.32;55.72;100280.50;7034250;28;20285;-81
2023/01/25 05:06:16;;;;;;;16.43;10.67;;;;;;;8.61;54.79;100281.91;7033675;28;20285;-81
2023/01/25 05:09:37;;;;;;;14.00;9.40;;;;;;;8.33;54.84;100276.81;7033672;28;20222;-81
2023/01/25 05:12:59;;;;;;;13.83;11.07;;;;;;;7.77;55.71;100174.22;7033619;28;20636;-81
2023/01/25 05:16:21;;;;;;;14.00;9.77;;;;;;;8.59;55.02;100262.41;7032852;28;20227;-81
2023/01/25 05:19:43;;;;;;;14.23;10.13;;;;;;;8.79;53.93;100245.03;7033840;28;20659;-80
2023/01/25 05:23:04;;;;;;;14.87;9.93;;;;;;;8.78;53.87;100269.44;7033801;28;20263;-81
2023/01/25 05:30:06;;;;;;;15.43;11.03;;;;;;;8.67;53.29;100242.81;7033466;28;20228;-78
2023/01/25 05:33:29;;;;;;;14.70;10.30;;;;;;;8.35;54.25;100259.53;7033624;28;20264;-79
2023/01/25 05:36:51;;;;;;;15.60;10.33;;;;;;;8.09;55.34;100247.00;7030346;28;20284;-80
2023/01/25 05:40:13;;;;;;;14.80;10.30;;;;;;;8.24;54.46;100208.72;7032907;28;20695;-81
2023/01/25 05:43:34;;;;;;;14.73;10.83;;;;;;;8.33;55.00;100264.22;7036292;28;20254;-79
2023/01/25 05:46:56;;;;;;;15.97;10.60;;;;;;;8.38;54.62;100261.06;7014523;28;20222;-80
2023/01/25 05:50:18;;;;;;;18.00;11.73;;;;;;;8.26;54.63;100249.69;7008099;28;20685;-80
2023/01/25 05:53:40;;;;;;;15.63;11.03;;;;;;;7.97;55.36;100258.97;7032430;28;20354;-81
2023/01/25 05:57:01;;;;;;;16.37;10.93;;;;;;;7.91;55.08;100254.22;7031604;28;20316;-80
2023/01/25 06:00:23;;;;;;;14.83;10.43;;;;;;;7.46;55.85;100242.66;7031653;28;20211;-80
2023/01/25 06:03:45;;;;;;;109.20;59.17;;;;;;;7.72;55.66;100239.09;7031926;28;20200;-81
2023/01/25 06:07:08;;;;;;;21.40;13.13;;;;;;;8.10;55.20;100252.25;7032173;28;20311;-82
2023/01/25 06:10:29;;;;;;;13.23;9.53;;;;;;;7.99;55.27;100240.88;7014519;28;20736;-81
2023/01/25 06:13:51;;;;;;;14.27;9.33;;;;;;;8.14;54.72;100244.72;7004207;28;20264;-81
2023/01/25 06:17:13;;;;;;;12.70;9.40;;;;;;;7.84;54.96;100250.47;7017721;28;20230;-81
2023/01/25 06:20:34;;;;;;;11.97;9.17;;;;;;;7.53;55.59;100249.09;7010990;28;20204;-81
2023/01/25 06:23:57;;;;;;;13.13;8.87;;;;;;;7.91;53.62;100211.25;7003767;28;20794;-80
2023/01/25 06:27:19;;;;;;;13.40;9.17;;;;;;;7.79;54.37;100247.41;7003262;28;20214;-80
2023/01/25 06:30:41;;;;;;;11.83;8.70;;;;;;;7.31;55.06;100207.44;7002787;28;20272;-80
2023/01/25 06:34:05;;;;;;;12.77;9.47;;;;;;;7.90;54.83;100245.31;7003162;28;20267;-83
2023/01/25 06:37:26;;;;;;;11.13;8.73;;;;;;;7.86;53.51;100186.72;7002057;28;20274;-81
2023/01/25 06:40:49;;;;;;;10.50;8.27;;;;;;;7.74;54.62;100242.50;7002674;28;20216;-80
2023/01/25 06:44:11;;;;;;;10.93;7.53;;;;;;;7.80;53.93;100249.94;7002552;28;20208;-81
2023/01/25 06:47:32;;;;;;;11.03;8.77;;;;;;;7.64;54.49;100236.34;7004632;28;20313;-81
2023/01/25 06:50:55;;;;;;;10.77;8.53;;;;;;;7.97;54.33;100240.19;7004183;28;20246;-79
2023/01/25 06:54:17;;;;;;;11.50;8.43;;;;;;;8.07;53.36;100214.91;7003762;28;20232;-79
2023/01/25 06:57:39;;;;;;;10.63;8.57;;;;;;;8.05;53.55;100234.88;7004369;28;20279;-79
2023/01/25 07:01:05;;;;;;;14.07;10.97;;;;;;;7.91;53.26;100189.78;7012569;28;20203;-80
2023/01/25 07:04:26;;;;;;;12.30;9.23;;;;;;;7.36;54.66;100185.56;7032339;28;20909;-80
2023/01/25 07:07:48;;;;;;;12.43;9.87;;;;;;;7.92;54.17;100197.69;7027014;28;20282;-80
2023/01/25 07:11:12;;;;;;;11.80;8.80;;;;;;;7.72;54.27;100198.81;7033088;28;20206;-79
2023/01/25 07:14:35;;;;;;;10.77;8.67;;;;;;;7.35;54.64;100216.91;7034161;28;20255;-77
2023/01/25 07:17:56;;;;;;;10.77;8.63;;;;;;;7.54;54.72;100214.06;7032276;28;20316;-78
2023/01/25 07:21:20;;;;;;;11.37;8.70;;;;;;;7.82;53.84;100226.44;7032118;28;20215;-78
2023/01/25 07:24:42;;;;;;;11.07;8.60;;;;;;;7.46;54.82;100215.81;7009236;28;20211;-78
2023/01/25 07:28:03;;;;;;;12.47;9.20;;;;;;;7.76;54.06;100220.84;7006270;28;20289;-78
2023/01/25 07:31:27;;;;;;;12.33;9.60;;;;;;;7.21;55.22;100190.59;7003723;28;20350;-78
2023/01/25 07:34:48;;;;;;;12.07;9.07;;;;;;;7.15;56.37;100193.00;7005114;28;20276;-78
2023/01/25 07:38:10;;;;;;;12.73;9.43;;;;;;;6.98;55.56;100091.91;7004272;28;20234;-78
2023/01/25 07:41:32;;;;;;;12.37;9.33;;;;;;;7.85;54.13;100195.78;7002955;28;20302;-78
2023/01/25 07:44:53;;;;;;;14.47;9.70;;;;;;;7.65;54.91;100191.53;7002593;28;20204;-78
2023/01/25 07:48:17;;;;;;;14.20;10.33;;;;;;;7.40;55.32;100203.00;7003220;28;20256;-77
2023/01/25 07:51:39;;;;;;;12.57;9.50;;;;;;;6.85;57.32;100201.34;7003108;28;20239;-79
2023/01/25 07:55:00;;;;;;;14.60;10.33;;;;;;;6.82;56.62;100210.53;7002356;28;20226;-78
2023/01/25 07:58:22;;;;;;;13.87;9.97;;;;;;;7.09;56.76;100207.03;7002879;28;20313;-77
2023/01/25 08:01:43;;;;;;;14.43;10.77;;;;;;;7.02;57.41;100208.63;7002898;28;20279;-77
2023/01/25 08:05:06;;;;;;;14.60;10.10;;;;;;;7.64;55.44;100190.72;7002743;28;20248;-78
2023/01/25 08:08:28;;;;;;;16.83;10.33;;;;;;;7.87;54.86;100197.31;7002778;28;20234;-78
2023/01/25 08:11:52;;;;;;;15.10;10.70;;;;;;;8.09;54.23;100202.19;7002324;28;20679;-79
2023/01/25 08:15:13;;;;;;;15.93;10.90;;;;;;;8.29;54.02;100200.19;7002025;28;20227;-78
2023/01/25 08:18:35;;;;;;;15.83;10.70;;;;;;;7.49;54.34;100199.44;7002345;28;20231;-77
2023/01/25 08:21:58;;;;;;;15.47;11.10;;;;;;;7.70;55.24;100190.09;7002490;28;20205;-77
2023/01/25 08:25:19;;;;;;;14.57;10.97;;;;;;;7.41;55.28;100184.09;7001897;28;20365;-78
2023/01/25 08:28:41;;;;;;;15.10;10.37;;;;;;;7.48;55.37;100217.38;7002378;28;20230;-78
2023/01/25 08:32:03;;;;;;;15.43;10.87;;;;;;;7.71;54.41;100224.00;7015838;28;20215;-79
2023/01/25 08:35:24;;;;;;;16.13;11.10;;;;;;;7.82;53.75;100212.16;7029506;28;20264;-78
2023/01/25 08:38:48;;;;;;;14.50;10.33;;;;;;;7.75;53.66;100141.31;7031801;28;20317;-77
2023/01/25 08:42:09;;;;;;;15.67;11.30;;;;;;;8.39;52.55;100209.84;7031814;28;20237;-79
2023/01/25 08:45:35;;;;;;;16.10;10.87;;;;;;;8.53;53.02;100187.75;7025185;28;20206;-80
2023/01/25 08:48:57;;;;;;;17.20;11.03;;;;;;;8.33;51.91;100167.50;7030008;28;20246;-80
2023/01/25 08:52:19;;;;;;;15.87;11.53;;;;;;;7.70;54.06;100183.88;7030045;28;20290;-81
2023/01/25 08:55:42;;;;;;;15.70;11.30;;;;;;;7.77;53.20;100177.72;7030470;28;20725;-79
2023/01/25 08:59:04;;;;;;;13.57;10.93;;;;;;;7.49;54.65;100186.84;7029962;28;20223;-80
2023/01/25 09:02:26;;;;;;;15.00;10.23;;;;;;;8.28;52.68;100175.16;7030361;28;20291;-79
2023/01/25 09:05:47;;;;;;;14.87;10.87;;;;;;;8.24;52.51;100176.47;7029066;28;20295;-80
2023/01/25 09:09:09;;;;;;;16.13;11.50;;;;;;;8.39;52.28;100171.38;7029214;28;20318;-78
2023/01/25 09:12:32;;;;;;;17.87;12.30;;;;;;;8.46;52.05;100165.22;7029526;28;20327;-78
2023/01/25 09:15:59;;;;;;;17.93;12.80;;;;;;;8.27;52.60;100173.50;7028631;28;20368;-79
2023/01/25 09:19:20;;;;;;;17.27;12.93;;;;;;;8.56;51.98;100182.09;7030070;28;20284;-80
2023/01/25 09:22:42;;;;;;;16.23;11.47;;;;;;;8.02;52.81;100160.00;7026452;28;20198;-78
2023/01/25 09:26:04;;;;;;;19.27;11.97;;;;;;;7.67;53.62;100125.97;7032577;28;20218;-79
2023/01/25 09:29:27;;;;;;;14.33;10.80;;;;;;;7.73;53.69;100192.44;7034876;28;20306;-78
2023/01/25 09:32:49;;;;;;;14.93;10.73;;;;;;;7.86;53.84;100163.41;7033076;28;20214;-79
2023/01/25 09:36:11;;;;;;;15.90;12.13;;;;;;;7.79;54.22;100159.63;7034094;28;20319;-79
2023/01/25 09:39:32;;;;;;;16.73;10.53;;;;;;;7.57;54.06;100165.47;7034518;28;20207;-78
2023/01/25 09:42:59;;;;;;;17.40;11.83;;;;;;;7.11;54.95;100146.03;7034564;28;20336;-79
2023/01/25 09:46:28;;;;;;;17.47;12.93;;;;;;;7.41;53.98;100167.13;7034136;28;20255;-78
2023/01/25 09:50:01;;;;;;;16.73;11.40;;;;;;;8.09;53.01;100129.69;7034397;28;20224;-79
2023/01/25 09:53:28;;;;;;;13.80;10.67;;;;;;;8.28;52.68;100164.44;7033450;28;20293;-79
2023/01/25 09:56:51;;;;;;;17.37;11.47;;;;;;;8.23;52.52;100161.38;7033107;28;20334;-78
2023/01/25 10:00:18;;;;;;;14.97;12.03;;;;;;;8.40;52.58;100167.69;7033662;28;20263;-79
2023/01/25 10:03:45;;;;;;;16.83;12.63;;;;;;;8.84;51.41;100162.03;7033358;28;20276;-78
2023/01/25 10:07:17;;;;;;;14.20;10.77;;;;;;;8.60;50.39;100150.34;7033154;28;20223;-79
2023/01/25 10:10:41;;;;;;;16.50;12.70;;;;;;;8.17;51.71;100132.41;7033329;28;20200;-80
2023/01/25 10:14:02;;;;;;;15.87;11.63;;;;;;;8.66;51.22;100137.09;7033110;28;20215;-81
2023/01/25 10:17:27;;;;;;;19.60;11.83;;;;;;;7.91;52.61;100147.63;7030939;28;20317;-80
2023/01/25 10:20:54;;;;;;;18.63;12.87;;;;;;;8.51;52.16;100152.16;7033702;28;20207;-81
2023/01/25 10:24:31;;;;;;;18.03;11.77;;;;;;;8.85;50.89;100147.59;7034780;28;20668;-81
2023/01/25 10:28:06;;;;;;;17.90;12.60;;;;;;;8.04;52.97;100123.94;7035325;28;20371;-80
2023/01/25 10:31:34;;;;;;;18.23;12.80;;;;;;;7.57;54.63;100143.16;7033427;28;20324;-80
2023/01/25 10:34:57;;;;;;;16.67;12.50;;;;;;;8.09;53.36;100140.41;7035502;28;20260;-81
2023/01/25 10:38:26;;;;;;;18.70;13.23;;;;;;;8.17;52.78;100129.72;7035750;28;20226;-81
2023/01/25 10:41:51;;;;;;;18.30;13.87;;;;;;;7.08;55.07;100141.81;7035670;28;20195;-81
2023/01/25 10:45:12;;;;;;;17.20;12.70;;;;;;;7.59;54.14;100125.91;7034730;28;20201;-81
2023/01/25 10:48:35;;;;;;;18.23;12.87;;;;;;;7.55;54.47;100116.47;7035274;28;20272;-81
2023/01/25 10:51:57;;;;;;;16.70;11.93;;;;;;;7.69;53.89;100123.97;7034312;28;20670;-81
2023/01/25 10:55:22;;;;;;;20.47;14.13;;;;;;;7.22;55.33;100109.13;7034581;28;20242;-81
2023/01/25 10:58:45;;;;;;;16.80;13.00;;;;;;;7.00;56.01;100112.22;7028842;28;20224;-82
2023/01/25 11:02:38;;;;;;;17.20;13.33;;;;;;;7.19;55.89;100112.09;7019640;28;20207;-81
2023/01/25 11:05:59;;;;;;;19.00;13.07;;;;;;;6.85;56.57;100097.63;7036947;28;20253;-81
2023/01/25 11:09:33;;;;;;;17.07;12.30;;;;;;;7.43;55.41;100114.19;7037656;28;20368;-82
2023/01/25 11:13:18;;;;;;;18.93;12.80;;;;;;;7.35;54.74;100082.75;7036296;28;20268;-82
2023/01/25 11:16:40;;;;;;;18.43;12.90;;;;;;;7.99;53.64;100098.53;7046947;28;20222;-80
2023/01/25 11:20:11;;;;;;;19.00;13.47;;;;;;;7.45;54.94;100086.19;7036786;28;20215;-81
2023/01/25 11:23:33;;;;;;;17.53;12.10;;;;;;;8.18;53.15;100082.19;7035933;28;20191;-81
2023/01/25 11:27:20;;;;;;;20.20;13.07;;;;;;;8.12;53.42;100085.50;7033698;28;20222;-81
2023/01/25 11:30:43;;;;;;;21.30;13.80;;;;;;;8.39;52.27;100080.00;7031556;28;20227;-82
2023/01/25 11:34:08;;;;;;;19.03;13.27;;;;;;;8.38;53.31;100079.16;7034830;28;20231;-82
2023/01/25 11:37:42;;;;;;;17.93;12.67;;;;;;;8.52;51.28;100073.19;7036837;28;20223;-83
2023/01/25 11:41:11;;;;;;;20.70;14.17;;;;;;;7.94;52.35;100010.38;7034069;28;20276;-81
2023/01/25 11:45:14;;;;;;;17.70;13.73;;;;;;;7.30;54.73;100068.13;7015085;28;20203;-81
2023/01/25 11:49:04;;;;;;;22.57;15.23;;;;;;;8.00;54.07;100057.22;6988055;28;20290;-80
2023/01/25 11:52:33;;;;;;;19.83;14.30;;;;;;;7.57;54.28;100023.25;7033591;28;20277;-81
2023/01/25 11:56:00;;;;;;;19.60;13.67;;;;;;;7.65;53.85;100001.81;7032499;28;20278;-81
2023/01/25 11:59:33;;;;;;;19.63;14.23;;;;;;;7.58;54.92;100045.53;7033963;28;20318;-82
2023/01/25 12:03:13;;;;;;;21.93;15.00;;;;;;;8.16;53.27;100004.47;7034068;28;20671;-80
2023/01/25 12:06:42;;;;;;;18.50;13.33;;;;;;;7.80;53.70;100005.63;7033098;28;20315;-80
2023/01/25 12:10:16;;;;;;;21.60;14.27;;;;;;;7.84;53.63;100011.50;7039646;28;20204;-80
2023/01/25 12:13:46;;;;;;;20.97;13.80;;;;;;;8.08;53.93;100000.91;7030973;28;20212;-79
2023/01/25 12:17:19;;;;;;;19.37;13.93;;;;;;;8.28;53.53;99994.28;7029102;28;20337;-79
2023/01/25 12:20:55;;;;;;;19.73;14.53;;;;;;;8.30;53.26;99987.75;7029878;28;20754;-79
2023/01/25 12:24:32;;;;;;;23.37;15.50;;;;;;;8.44;52.76;99968.31;7028785;28;20198;-79
2023/01/25 12:28:03;;;;;;;23.03;15.33;;;;;;;8.09;53.57;99967.66;7029767;28;20573;-80
2023/01/25 12:31:26;;;;;;;20.67;14.33;;;;;;;8.02;53.83;99953.19;7028605;28;20279;-79
2023/01/25 12:34:51;;;;;;;21.33;14.40;;;;;;;8.62;52.00;99949.41;7029560;28;20279;-80
2023/01/25 12:38:16;;;;;;;22.60;15.40;;;;;;;8.13;53.41;99939.47;7029179;28;20319;-79
2023/01/25 12:41:43;;;;;;;21.10;14.27;;;;;;;8.47;51.77;99916.94;7029971;28;20769;-79
2023/01/25 12:45:10;;;;;;;21.57;14.77;;;;;;;8.62;51.59;99912.63;7029958;28;20278;-80
2023/01/25 12:48:34;;;;;;;25.07;16.37;;;;;;;8.43;54.14;99931.69;7030109;28;20699;-79
2023/01/25 12:51:56;;;;;;;21.50;14.20;;;;;;;8.52;52.74;99928.03;7029711;28;20211;-79
2023/01/25 12:55:18;;;;;;;23.00;16.20;;;;;;;8.30;52.35;99909.03;7030367;28;20277;-80
2023/01/25 12:58:46;;;;;;;21.93;15.90;;;;;;;8.58;52.00;99911.25;7032247;28;20363;-80
2023/01/25 13:02:19;;;;;;;23.50;17.17;;;;;;;8.62;52.50;99901.00;7035907;28;20217;-82
2023/01/25 13:05:46;;;;;;;21.07;15.43;;;;;;;8.61;51.86;99875.13;7034870;28;20278;-81
2023/01/25 13:09:16;;;;;;;22.23;14.93;;;;;;;8.73;51.82;99879.19;7035697;28;20238;-81
2023/01/25 13:12:51;;;;;;;25.57;17.27;;;;;;;8.57;52.62;99889.91;7035630;28;20267;-80
2023/01/25 13:16:33;;;;;;;23.73;15.93;;;;;;;8.67;51.58;99888.72;7028433;28;20768;-80
2023/01/25 13:19:55;;;;;;;23.33;15.50;;;;;;;8.55;52.23;99865.88;7034707;28;20281;-80
2023/01/25 13:23:30;;;;;;;21.53;15.33;;;;;;;8.17;53.02;99868.28;7034752;28;20382;-80
2023/01/25 13:27:03;;;;;;;21.60;14.47;;;;;;;8.01;52.69;99836.03;7034252;28;20221;-82
2023/01/25 13:30:31;;;;;;;25.83;16.17;;;;;;;7.92;53.63;99874.59;7033830;28;20195;-80
2023/01/25 13:33:54;;;;;;;23.33;15.43;;;;;;;8.01;54.00;99876.31;7034628;28;20295;-80
2023/01/25 13:37:17;;;;;;;24.60;16.43;;;;;;;7.43;54.67;99852.06;7033414;28;20664;-81
2023/01/25 13:40:39;;;;;;;26.67;16.90;;;;;;;7.42;55.37;99861.13;7034022;28;20206;-80
2023/01/25 13:44:21;;;;;;;23.23;15.90;;;;;;;7.48;54.64;99852.44;7034740;28;20257;-82
2023/01/25 13:47:43;;;;;;;23.37;16.30;;;;;;;7.90;54.01;99864.00;7034514;28;20230;-80
2023/01/25 13:51:09;;;;;;;26.20;17.00;;;;;;;8.13;53.17;99850.84;7034644;28;20291;-80
2023/01/25 13:54:31;;;;;;;21.23;14.90;;;;;;;8.41;52.51;99844.19;7034485;28;20268;-80
2023/01/25 13:57:53;;;;;;;24.67;16.10;;;;;;;8.12;52.91;99852.69;7034203;28;20237;-80
2023/01/25 14:01:17;;;;;;;23.23;15.77;;;;;;;7.79;54.48;99844.69;7034511;28;20709;-80
2023/01/25 14:04:39;;;;;;;26.03;16.53;;;;;;;8.11;53.11;99807.16;7033534;28;20299;-79
2023/01/25 14:08:01;;;;;;;26.97;17.23;;;;;;;7.83;53.83;99820.03;7034300;28;20649;-79
2023/01/25 14:11:25;;;;;;;23.87;15.83;;;;;;;7.99;53.28;99811.19;7033300;28;20360;-79
2023/01/25 14:14:48;;;;;;;23.70;17.23;;;;;;;8.48;52.85;99819.19;7033700;28;20191;-79
2023/01/25 14:18:12;;;;;;;28.27;17.33;;;;;;;8.37;52.84;99792.63;7033384;28;20233;-80
2023/01/25 14:21:33;;;;;;;28.87;17.27;;;;;;;8.62;52.40;99826.59;7033250;28;20210;-80
2023/01/25 14:25:11;;;;;;;25.60;16.70;;;;;;;8.29;52.86;99818.66;7032510;28;20206;-79
2023/01/25 14:28:32;;;;;;;27.57;16.33;;;;;;;7.91;53.63;99843.38;7033043;28;20317;-79
2023/01/25 14:31:54;;;;;;;25.67;15.93;;;;;;;8.13;53.33;99838.25;7032455;28;20203;-79
2023/01/25 14:35:39;;;;;;;24.53;16.20;;;;;;;8.21;52.62;99837.44;7031545;28;20655;-80
2023/01/25 14:39:01;;;;;;;27.70;16.47;;;;;;;7.67;53.79;99838.75;6998234;28;20249;-80
2023/01/25 14:42:24;;;;;;;27.40;17.23;;;;;;;7.06;55.46;99826.53;7017367;28;20274;-80
2023/01/25 14:45:46;;;;;;;27.07;16.77;;;;;;;6.89;57.06;99841.69;7029584;28;20202;-80
2023/01/25 14:49:24;;;;;;;24.80;17.03;;;;;;;7.43;55.09;99825.22;7030940;28;20222;-79
2023/01/25 14:52:45;;;;;;;25.23;17.30;;;;;;;7.95;54.87;99826.78;7046999;28;20218;-80
2023/01/25 14:56:26;;;;;;;25.50;17.67;;;;;;;8.21;53.15;99819.50;7056232;28;20258;-79
2023/01/25 14:59:52;;;;;;;27.33;17.20;;;;;;;7.79;54.06;99804.41;7055159;28;20217;-80
2023/01/25 15:03:16;;;;;;;29.20;16.53;;;;;;;7.10;56.33;99817.19;7054877;28;20210;-80
2023/01/25 15:06:45;;;;;;;25.90;17.77;;;;;;;7.84;55.02;99813.66;7053034;28;20224;-80
2023/01/25 15:10:16;;;;;;;33.60;22.20;;;;;;;8.22;53.56;99804.22;7054829;28;20240;-80
2023/01/25 15:13:37;;;;;;;26.13;15.80;;;;;;;8.20;52.78;99782.88;7054260;28;20212;-80
2023/01/25 15:17:00;;;;;;;27.27;17.43;;;;;;;8.31;52.91;99801.34;7050717;28;20319;-81
2023/01/25 15:20:33;;;;;;;28.20;17.03;;;;;;;7.76;53.64;99784.13;7048938;28;20474;-81
2023/01/25 15:23:56;;;;;;;29.60;18.53;;;;;;;6.64;56.50;99788.03;7034578;28;20253;-80
2023/01/25 15:27:17;;;;;;;25.60;16.67;;;;;;;6.77;57.05;99742.94;7038550;28;20242;-79
2023/01/25 15:30:39;;;;;;;25.40;15.10;;;;;;;7.32;56.26;99779.09;7036085;28;20304;-81
2023/01/25 15:34:02;;;;;;;23.43;14.90;;;;;;;7.67;54.47;99746.69;7037167;28;20701;-78
2023/01/25 15:37:24;;;;;;;26.83;15.70;;;;;;;8.11;53.90;99778.47;7036658;28;20277;-79
2023/01/25 15:40:46;;;;;;;25.07;15.37;;;;;;;8.05;53.49;99756.81;7036263;28;20593;-81
2023/01/25 15:44:07;;;;;;;24.37;15.10;;;;;;;7.23;54.39;99716.53;7028948;28;20265;-80
2023/01/25 15:47:29;;;;;;;24.53;14.00;;;;;;;6.83;56.04;99751.16;7022373;28;20230;-79